Time;durP1;ratioP1;P1;durP2;ratioP2;P2;SDS_P1;SDS_P2;PMS_P1;PMS_P2;Temp;Humidity;BMP_temperature;BMP_pressure;BME280_temperature;BME280_humidity;BME280_pressure;Samples;Min_cycle;Max_cycle;Signal;HPM_P1;HPM_P2
2022/03/03 00:01:40;;;;;;;;;;;18.80;58.00;;;;;;4988902;28;1049;-68
2022/03/03 00:04:06;;;;;;;;;;;18.80;58.10;;;;;;4973786;28;927;-68
2022/03/03 00:06:31;;;;;;;;;;;18.80;58.10;;;;;;4988964;28;1061;-69
2022/03/03 00:08:57;;;;;;;;;;;18.80;58.10;;;;;;4973681;28;1212;-67
2022/03/03 00:11:22;;;;;;;;;;;18.80;58.10;;;;;;4973904;28;888;-68
2022/03/03 00:13:48;;;;;;;;;;;18.80;58.10;;;;;;4988872;28;1058;-68
2022/03/03 00:16:13;;;;;;;;;;;18.80;58.10;;;;;;4988571;28;1894;-69
2022/03/03 00:18:39;;;;;;;;;;;18.80;58.10;;;;;;4974271;28;1206;-68
2022/03/03 00:21:04;;;;;;;;;;;18.80;58.20;;;;;;4992416;28;1160;-68
2022/03/03 00:23:30;;;;;;;;;;;18.70;58.10;;;;;;4976369;28;1384;-68
2022/03/03 00:25:55;;;;;;;;;;;18.80;58.20;;;;;;4976307;28;1542;-68
2022/03/03 00:28:21;;;;;;;;;;;18.80;58.20;;;;;;4976079;28;1287;-68
2022/03/03 00:30:46;;;;;;;;;;;18.70;58.20;;;;;;4977323;28;986;-68
2022/03/03 00:33:12;;;;;;;;;;;18.70;58.10;;;;;;4977206;28;853;-68
2022/03/03 00:35:38;;;;;;;;;;;18.70;58.20;;;;;;4991277;28;1112;-68
2022/03/03 00:38:03;;;;;;;;;;;18.70;58.80;;;;;;4996554;28;2000;-68
2022/03/03 00:40:28;;;;;;;;;;;18.70;58.20;;;;;;4984065;28;1255;-68
2022/03/03 00:42:54;;;;;;;;;;;18.70;58.20;;;;;;4975128;28;1245;-68
2022/03/03 00:45:19;;;;;;;;;;;18.70;58.20;;;;;;4977287;28;781;-69
2022/03/03 00:47:45;;;;;;;;;;;18.70;58.20;;;;;;4975527;28;1292;-69
2022/03/03 00:50:10;;;;;;;;;;;18.70;58.30;;;;;;4976847;28;855;-68
2022/03/03 00:52:36;;;;;;;;;;;18.70;58.30;;;;;;4975708;28;936;-68
2022/03/03 00:55:01;;;;;;;;;;;18.70;58.30;;;;;;4992034;28;835;-69
2022/03/03 00:57:27;;;;;;;;;;;18.70;58.30;;;;;;4976981;28;1973;-68
2022/03/03 00:59:52;;;;;;;;;;;18.70;58.30;;;;;;4976706;28;857;-68
2022/03/03 01:02:18;;;;;;;;;;;18.70;58.30;;;;;;4991854;28;970;-68
2022/03/03 01:04:43;;;;;;;;;;;18.70;58.30;;;;;;4990138;28;1290;-68
2022/03/03 01:07:08;;;;;;;;;;;18.70;58.30;;;;;;4976750;28;1202;-68
2022/03/03 01:09:34;;;;;;;;;;;18.70;58.30;;;;;;4976548;28;704;-69
2022/03/03 01:11:59;;;;;;;;;;;18.60;58.30;;;;;;4976704;28;1101;-68
2022/03/03 01:14:25;;;;;;;;;;;18.60;58.30;;;;;;4959361;28;1261;-68
2022/03/03 01:16:51;;;;;;;;;;;18.60;58.30;;;;;;4976497;28;1958;-68
2022/03/03 01:19:16;;;;;;;;;;;18.60;58.30;;;;;;4974857;28;1212;-69
2022/03/03 01:21:42;;;;;;;;;;;18.60;58.30;;;;;;4975139;28;1265;-68
2022/03/03 01:24:07;;;;;;;;;;;18.60;58.30;;;;;;4976508;28;880;-68
2022/03/03 01:26:33;;;;;;;;;;;18.60;58.40;;;;;;4976547;28;1025;-68
2022/03/03 01:28:58;;;;;;;;;;;18.60;58.40;;;;;;4961284;28;1383;-68
2022/03/03 01:31:24;;;;;;;;;;;18.70;58.40;;;;;;4939657;29;959;-67
2022/03/03 01:33:49;;;;;;;;;;;18.60;58.30;;;;;;4956700;28;939;-68
2022/03/03 01:36:14;;;;;;;;;;;18.60;58.40;;;;;;4994360;28;1899;-69
2022/03/03 01:38:40;;;;;;;;;;;18.70;58.40;;;;;;4994222;28;1247;-68
2022/03/03 01:41:05;;;;;;;;;;;18.60;58.40;;;;;;4995626;28;1014;-68
2022/03/03 01:43:31;;;;;;;;;;;18.60;58.40;;;;;;4995411;28;778;-68
2022/03/03 01:45:56;;;;;;;;;;;18.60;58.40;;;;;;4995560;28;792;-69
2022/03/03 01:48:21;;;;;;;;;;;18.60;58.40;;;;;;4994181;28;1139;-68
2022/03/03 01:50:49;;;;;;;;;;;18.60;58.40;;;;;;4995238;28;880;-69
2022/03/03 01:53:15;;;;;;;;;;;18.60;58.50;;;;;;4994179;28;796;-68
2022/03/03 01:55:40;;;;;;;;;;;18.60;58.50;;;;;;4994263;28;1073;-69
2022/03/03 01:58:05;;;;;;;;;;;18.60;58.50;;;;;;4993857;28;1898;-69
2022/03/03 02:00:31;;;;;;;;;;;18.60;58.50;;;;;;4995120;28;692;-68
2022/03/03 02:02:56;;;;;;;;;;;18.60;58.50;;;;;;4995487;28;722;-68
2022/03/03 02:05:22;;;;;;;;;;;18.60;58.50;;;;;;4995042;28;856;-68
2022/03/03 02:07:47;;;;;;;;;;;18.60;58.50;;;;;;4995463;28;1185;-68
2022/03/03 02:10:13;;;;;;;;;;;18.60;58.50;;;;;;5010232;28;1458;-68
2022/03/03 02:12:38;;;;;;;;;;;18.60;58.50;;;;;;4995085;28;788;-68
2022/03/03 02:15:04;;;;;;;;;;;18.60;58.50;;;;;;4968885;28;1264;-67
2022/03/03 02:17:30;;;;;;;;;;;18.50;58.50;;;;;;4955774;28;1960;-69
2022/03/03 02:19:55;;;;;;;;;;;18.50;58.50;;;;;;4964189;28;1156;-68
2022/03/03 02:22:21;;;;;;;;;;;18.50;58.50;;;;;;4975750;28;813;-68
2022/03/03 02:24:46;;;;;;;;;;;18.60;58.60;;;;;;4975390;28;833;-69
2022/03/03 02:27:12;;;;;;;;;;;18.60;58.50;;;;;;4974044;28;1365;-68
2022/03/03 02:29:37;;;;;;;;;;;18.50;58.50;;;;;;4973909;28;848;-68
2022/03/03 02:32:05;;;;;;;;;;;18.60;58.50;;;;;;4974978;28;804;-68
2022/03/03 02:34:30;;;;;;;;;;;18.60;58.50;;;;;;4980139;28;1344;-68
2022/03/03 02:36:56;;;;;;;;;;;18.60;58.50;;;;;;4993268;28;1966;-68
2022/03/03 02:39:21;;;;;;;;;;;18.50;58.50;;;;;;4994474;28;934;-69
2022/03/03 02:41:47;;;;;;;;;;;18.50;58.50;;;;;;4993838;28;789;-69
2022/03/03 02:44:12;;;;;;;;;;;18.50;58.50;;;;;;4994508;28;903;-68
2022/03/03 02:46:37;;;;;;;;;;;18.50;58.50;;;;;;4992971;28;919;-68
2022/03/03 02:49:04;;;;;;;;;;;18.60;58.50;;;;;;4992768;28;1349;-68
2022/03/03 02:51:30;;;;;;;;;;;18.50;58.50;;;;;;4993076;28;883;-68
2022/03/03 02:53:55;;;;;;;;;;;18.50;58.50;;;;;;4994316;28;883;-68
2022/03/03 02:56:21;;;;;;;;;;;18.50;58.50;;;;;;4993089;28;1963;-68
2022/03/03 02:58:46;;;;;;;;;;;18.50;58.50;;;;;;4993952;28;1185;-68
2022/03/03 03:01:11;;;;;;;;;;;18.50;58.50;;;;;;4992828;28;722;-68
2022/03/03 03:03:37;;;;;;;;;;;18.50;58.50;;;;;;4992781;28;1306;-68
2022/03/03 03:06:03;;;;;;;;;;;18.50;58.50;;;;;;4994095;28;819;-68
2022/03/03 03:08:29;;;;;;;;;;;18.50;58.50;;;;;;4993769;28;1242;-68
2022/03/03 03:10:54;;;;;;;;;;;18.50;58.50;;;;;;4993914;28;777;-67
2022/03/03 03:13:19;;;;;;;;;;;18.50;58.50;;;;;;4976528;28;943;-69
2022/03/03 03:15:45;;;;;;;;;;;18.50;58.50;;;;;;4993797;28;891;-68
2022/03/03 03:18:11;;;;;;;;;;;18.50;58.50;;;;;;4993783;28;1890;-68
2022/03/03 03:20:37;;;;;;;;;;;18.50;58.50;;;;;;4992886;28;1143;-69
2022/03/03 03:23:03;;;;;;;;;;;18.50;58.50;;;;;;4993868;28;1001;-69
2022/03/03 03:25:28;;;;;;;;;;;18.50;58.50;;;;;;4992731;28;714;-68
2022/03/03 03:27:53;;;;;;;;;;;18.50;58.50;;;;;;4993706;28;1212;-67
2022/03/03 03:30:19;;;;;;;;;;;18.50;58.50;;;;;;4993253;28;834;-68
2022/03/03 03:32:44;;;;;;;;;;;18.50;58.50;;;;;;4994199;28;816;-68
2022/03/03 03:35:10;;;;;;;;;;;18.50;58.60;;;;;;4982525;28;1120;-68
2022/03/03 03:37:38;;;;;;;;;;;18.50;58.60;;;;;;4974609;28;1906;-68
2022/03/03 03:40:04;;;;;;;;;;;18.50;58.60;;;;;;4988715;28;927;-68
2022/03/03 03:42:30;;;;;;;;;;;18.50;58.60;;;;;;4974162;28;816;-67
2022/03/03 03:44:55;;;;;;;;;;;18.50;58.60;;;;;;4974131;28;852;-68
2022/03/03 03:47:20;;;;;;;;;;;18.50;58.60;;;;;;4974083;28;1264;-67
2022/03/03 03:49:46;;;;;;;;;;;18.50;58.60;;;;;;4988960;28;848;-68
2022/03/03 03:52:11;;;;;;;;;;;18.50;58.60;;;;;;4968975;28;1200;-66
2022/03/03 03:54:37;;;;;;;;;;;18.50;58.60;;;;;;4977580;28;1254;-66
2022/03/03 03:57:02;;;;;;;;;;;18.50;58.60;;;;;;4977204;28;1910;-67
2022/03/03 03:59:28;;;;;;;;;;;18.50;58.60;;;;;;4976748;28;1278;-66
2022/03/03 04:01:53;;;;;;;;;;;18.50;58.60;;;;;;4976879;28;1305;-68
2022/03/03 04:04:19;;;;;;;;;;;18.40;58.60;;;;;;4977568;28;1242;-67
2022/03/03 04:06:44;;;;;;;;;;;18.50;58.60;;;;;;4975120;28;1386;-66
2022/03/03 04:09:09;;;;;;;;;;;18.40;58.60;;;;;;4977551;28;1412;-67
2022/03/03 04:11:35;;;;;;;;;;;18.40;58.60;;;;;;4974247;28;1317;-66
2022/03/03 04:14:00;;;;;;;;;;;18.50;58.70;;;;;;4973409;28;1408;-68
2022/03/03 04:16:26;;;;;;;;;;;18.40;58.60;;;;;;4978047;28;1961;-68
2022/03/03 04:18:51;;;;;;;;;;;18.50;58.70;;;;;;4984004;28;1282;-68
2022/03/03 04:21:16;;;;;;;;;;;18.40;58.60;;;;;;4970300;28;1412;-68
2022/03/03 04:23:42;;;;;;;;;;;18.40;58.60;;;;;;4967982;28;1186;-68
2022/03/03 04:26:08;;;;;;;;;;;18.40;58.70;;;;;;4950820;28;1253;-68
2022/03/03 04:28:33;;;;;;;;;;;18.40;58.70;;;;;;4967846;28;1390;-69
2022/03/03 04:30:58;;;;;;;;;;;18.40;58.70;;;;;;4964453;28;1240;-68
2022/03/03 04:33:24;;;;;;;;;;;18.40;58.70;;;;;;4960165;28;1181;-68
2022/03/03 04:35:49;;;;;;;;;;;18.40;58.70;;;;;;4987780;28;1467;-69
2022/03/03 04:38:15;;;;;;;;;;;18.40;58.70;;;;;;4996634;28;1890;-67
2022/03/03 04:40:40;;;;;;;;;;;18.40;58.70;;;;;;4996725;28;891;-67
2022/03/03 04:43:05;;;;;;;;;;;18.40;58.70;;;;;;4995835;28;950;-69
2022/03/03 04:45:31;;;;;;;;;;;18.40;58.70;;;;;;4996798;28;891;-67
2022/03/03 04:47:56;;;;;;;;;;;18.40;58.70;;;;;;4996640;28;1281;-68
2022/03/03 04:50:22;;;;;;;;;;;18.40;58.60;;;;;;4996589;28;887;-68
2022/03/03 04:52:47;;;;;;;;;;;18.40;58.60;;;;;;4996701;28;910;-68
2022/03/03 04:55:12;;;;;;;;;;;18.50;58.70;;;;;;4996621;28;1077;-68
2022/03/03 04:57:38;;;;;;;;;;;18.40;58.60;;;;;;4996691;28;1957;-68
2022/03/03 05:00:04;;;;;;;;;;;18.50;58.60;;;;;;4995078;28;1030;-68
2022/03/03 05:02:30;;;;;;;;;;;18.50;58.60;;;;;;4995435;28;896;-67
2022/03/03 05:04:55;;;;;;;;;;;18.50;58.60;;;;;;4994594;28;1010;-68
2022/03/03 05:07:20;;;;;;;;;;;18.50;58.60;;;;;;4996305;28;1193;-69
2022/03/03 05:09:46;;;;;;;;;;;18.50;58.50;;;;;;4996208;28;736;-68
2022/03/03 05:12:11;;;;;;;;;;;18.50;58.50;;;;;;4996294;28;871;-67
2022/03/03 05:14:37;;;;;;;;;;;18.50;58.50;;;;;;4996260;28;807;-68
2022/03/03 05:17:02;;;;;;;;;;;18.50;58.40;;;;;;4996202;28;1907;-67
2022/03/03 05:19:28;;;;;;;;;;;18.50;58.40;;;;;;4995406;28;1506;-67
2022/03/03 05:21:53;;;;;;;;;;;18.60;58.30;;;;;;4996149;28;1016;-68
2022/03/03 05:24:19;;;;;;;;;;;18.60;58.20;;;;;;4996041;28;895;-66
2022/03/03 05:26:44;;;;;;;;;;;18.60;58.10;;;;;;4995948;28;1217;-67
2022/03/03 05:29:09;;;;;;;;;;;18.70;58.00;;;;;;4995554;28;895;-67
2022/03/03 05:31:35;;;;;;;;;;;18.70;57.90;;;;;;4995019;28;887;-67
2022/03/03 05:34:03;;;;;;;;;;;18.80;57.80;;;;;;4993766;28;1218;-67
2022/03/03 05:36:28;;;;;;;;;;;18.80;57.80;;;;;;4976292;28;1902;-67
2022/03/03 05:38:54;;;;;;;;;;;18.80;57.70;;;;;;4975929;28;1201;-67
2022/03/03 05:41:19;;;;;;;;;;;18.80;57.60;;;;;;4975068;28;1062;-66
2022/03/03 05:43:44;;;;;;;;;;;18.80;57.50;;;;;;4964811;28;2021;-64
2022/03/03 05:46:10;;;;;;;;;;;18.80;57.50;;;;;;4966265;28;2063;-64
2022/03/03 05:48:35;;;;;;;;;;;18.90;57.40;;;;;;4986435;28;1461;-63
2022/03/03 05:51:01;;;;;;;;;;;18.90;57.40;;;;;;4969082;28;2052;-65
2022/03/03 05:53:26;;;;;;;;;;;18.90;57.40;;;;;;4972422;28;1203;-66
2022/03/03 05:55:54;;;;;;;;;;;18.90;57.30;;;;;;4975249;28;1533;-66
2022/03/03 05:58:20;;;;;;;;;;;18.90;57.30;;;;;;4973951;28;1971;-65
2022/03/03 06:00:45;;;;;;;;;;;18.90;57.30;;;;;;4973195;28;820;-65
2022/03/03 06:03:13;;;;;;;;;;;18.90;57.30;;;;;;4975173;28;880;-67
2022/03/03 06:05:38;;;;;;;;;;;18.90;57.30;;;;;;4974109;28;895;-66
2022/03/03 06:08:04;;;;;;;;;;;18.90;57.20;;;;;;4974516;28;1224;-69
2022/03/03 06:10:31;;;;;;;;;;;18.90;57.20;;;;;;4974769;28;900;-70
2022/03/03 06:13:06;;;;;;;;;;;18.90;57.30;;;;;;4974851;28;902;-70
2022/03/03 06:15:31;;;;;;;;;;;18.90;57.20;;;;;;4989292;28;871;-70
2022/03/03 06:17:56;;;;;;;;;;;19.00;57.30;;;;;;4989208;28;1906;-71
2022/03/03 06:20:23;;;;;;;;;;;18.90;57.20;;;;;;4989400;28;1521;-71
2022/03/03 06:22:48;;;;;;;;;;;18.90;57.20;;;;;;4974697;28;860;-69
2022/03/03 06:25:14;;;;;;;;;;;18.90;57.20;;;;;;4974637;28;847;-70
2022/03/03 06:27:39;;;;;;;;;;;18.90;57.20;;;;;;4974566;28;1295;-70
2022/03/03 06:30:05;;;;;;;;;;;19.00;57.20;;;;;;4974028;28;1018;-69
2022/03/03 06:32:30;;;;;;;;;;;18.90;57.20;;;;;;4974519;28;915;-70
2022/03/03 06:34:56;;;;;;;;;;;19.00;57.30;;;;;;4998002;28;1477;-71
2022/03/03 06:37:21;;;;;;;;;;;18.90;57.20;;;;;;4993886;28;1966;-67
2022/03/03 06:39:47;;;;;;;;;;;18.90;57.20;;;;;;4993771;28;1037;-68
2022/03/03 06:42:12;;;;;;;;;;;19.00;57.20;;;;;;4993730;28;832;-68
2022/03/03 06:44:38;;;;;;;;;;;18.90;57.20;;;;;;4992643;28;836;-67
2022/03/03 06:47:03;;;;;;;;;;;18.90;57.20;;;;;;4994476;28;1298;-67
2022/03/03 06:49:29;;;;;;;;;;;18.90;57.20;;;;;;4994306;28;898;-68
2022/03/03 06:51:55;;;;;;;;;;;18.90;57.20;;;;;;4994422;28;959;-67
2022/03/03 06:54:21;;;;;;;;;;;19.00;57.20;;;;;;4994421;28;1006;-67
2022/03/03 06:56:48;;;;;;;;;;;19.00;57.20;;;;;;4992992;28;1959;-68
2022/03/03 06:59:14;;;;;;;;;;;18.90;57.20;;;;;;4994063;28;875;-68
2022/03/03 07:01:39;;;;;;;;;;;19.00;57.20;;;;;;4994413;28;1085;-68
2022/03/03 07:04:05;;;;;;;;;;;19.00;57.20;;;;;;4994257;28;816;-67
2022/03/03 07:06:30;;;;;;;;;;;19.00;57.20;;;;;;4994270;28;835;-67
2022/03/03 07:08:56;;;;;;;;;;;19.00;57.20;;;;;;4993936;28;1175;-69
2022/03/03 07:11:21;;;;;;;;;;;19.00;57.20;;;;;;4993126;28;843;-68
2022/03/03 07:13:47;;;;;;;;;;;19.00;57.20;;;;;;4992663;28;1107;-68
2022/03/03 07:16:26;;;;;;;;;;;19.00;57.10;;;;;;4973592;28;1895;-65
2022/03/03 07:18:52;;;;;;;;;;;19.00;57.10;;;;;;4972804;28;1428;-67
2022/03/03 07:21:25;;;;;;;;;;;19.00;57.10;;;;;;4973408;28;1070;-67
2022/03/03 07:23:58;;;;;;;;;;;19.00;57.00;;;;;;4974389;28;1033;-66
2022/03/03 07:26:25;;;;;;;;;;;19.00;57.00;;;;;;4974463;28;1041;-66
2022/03/03 07:28:53;;;;;;;;;;;19.00;57.00;;;;;;4972696;28;1197;-69
2022/03/03 07:31:19;;;;;;;;;;;19.10;57.00;;;;;;4974402;28;1207;-64
2022/03/03 07:33:54;;;;;;;;;;;19.00;57.00;;;;;;4973376;28;1097;-64
2022/03/03 07:36:23;;;;;;;;;;;19.00;56.90;;;;;;4993253;28;1951;-65
2022/03/03 07:39:19;;;;;;;;;;;19.10;57.00;;;;;;4993382;28;1215;-67
2022/03/03 07:41:45;;;;;;;;;;;19.00;57.00;;;;;;4973687;28;2166;-66
2022/03/03 07:44:10;;;;;;;;;;;19.00;56.90;;;;;;4972859;28;1827;-67
2022/03/03 07:46:35;;;;;;;;;;;19.00;56.90;;;;;;4971977;28;1759;-65
2022/03/03 07:49:01;;;;;;;;;;;19.00;56.90;;;;;;4973196;28;1786;-67
2022/03/03 07:51:28;;;;;;;;;;;19.00;57.00;;;;;;4973087;28;1580;-66
2022/03/03 07:53:53;;;;;;;;;;;19.00;57.00;;;;;;4972191;28;1299;-68
2022/03/03 07:56:27;;;;;;;;;;;19.00;57.00;;;;;;4974210;28;1914;-66
2022/03/03 07:58:55;;;;;;;;;;;19.10;57.00;;;;;;4972535;28;1283;-67
2022/03/03 08:01:20;;;;;;;;;;;19.10;57.00;;;;;;4971815;28;1034;-67
2022/03/03 08:03:46;;;;;;;;;;;19.10;57.00;;;;;;4971919;28;876;-67
2022/03/03 08:06:11;;;;;;;;;;;19.20;56.90;;;;;;4962439;28;1106;-68
2022/03/03 08:08:37;;;;;;;;;;;19.30;56.80;;;;;;4953298;28;1185;-69
2022/03/03 08:11:03;;;;;;;;;;;19.40;56.60;;;;;;4937601;29;881;-68
2022/03/03 08:13:28;;;;;;;;;;;19.60;56.40;;;;;;4953520;29;1014;-68
2022/03/03 08:15:54;;;;;;;;;;;19.70;56.20;;;;;;4953615;29;837;-68
2022/03/03 08:18:19;;;;;;;;;;;19.80;55.90;;;;;;4954469;28;1887;-68
2022/03/03 08:20:45;;;;;;;;;;;20.00;55.70;;;;;;4969520;28;1527;-68
2022/03/03 08:23:10;;;;;;;;;;;20.10;55.40;;;;;;4972815;28;924;-67
2022/03/03 08:25:36;;;;;;;;;;;20.20;55.10;;;;;;4972822;28;947;-68
2022/03/03 08:28:02;;;;;;;;;;;20.30;54.80;;;;;;4972592;28;1271;-68
2022/03/03 08:30:28;;;;;;;;;;;20.50;54.60;;;;;;4972486;28;898;-68
2022/03/03 08:32:59;;;;;;;;;;;20.50;54.30;;;;;;4974064;28;849;-69
2022/03/03 08:35:29;;;;;;;;;;;20.60;54.10;;;;;;4973639;28;1405;-70
2022/03/03 08:38:05;;;;;;;;;;;20.70;53.90;;;;;;4973568;28;1899;-69
2022/03/03 08:40:31;;;;;;;;;;;20.80;53.70;;;;;;4975725;28;887;-68
2022/03/03 08:42:59;;;;;;;;;;;20.90;53.50;;;;;;4977286;28;1236;-69
2022/03/03 08:45:29;;;;;;;;;;;20.90;53.40;;;;;;4977234;28;1063;-69
2022/03/03 08:47:56;;;;;;;;;;;20.90;53.30;;;;;;4975994;28;1228;-69
2022/03/03 08:50:21;;;;;;;;;;;20.90;53.20;;;;;;4975727;28;828;-69
2022/03/03 08:52:47;;;;;;;;;;;21.00;53.80;;;;;;4976117;28;817;-70
2022/03/03 08:55:13;;;;;;;;;;;21.00;53.20;;;;;;4977128;28;827;-68
2022/03/03 08:57:39;;;;;;;;;;;21.00;53.20;;;;;;4977077;28;1914;-69
2022/03/03 09:00:05;;;;;;;;;;;21.00;53.30;;;;;;4975522;28;923;-69
2022/03/03 09:02:31;;;;;;;;;;;21.00;53.30;;;;;;4975825;28;1018;-68
2022/03/03 09:04:56;;;;;;;;;;;21.00;53.40;;;;;;4975850;28;1078;-68
2022/03/03 09:07:21;;;;;;;;;;;21.00;53.50;;;;;;4976082;28;1283;-68
2022/03/03 09:09:47;;;;;;;;;;;21.00;53.50;;;;;;4975346;28;923;-68
2022/03/03 09:12:13;;;;;;;;;;;21.00;53.50;;;;;;4976878;28;1026;-68
2022/03/03 09:14:39;;;;;;;;;;;20.90;53.40;;;;;;4976876;28;904;-70
2022/03/03 09:17:04;;;;;;;;;;;20.90;53.50;;;;;;4974447;28;2310;-67
2022/03/03 09:19:30;;;;;;;;;;;20.90;53.50;;;;;;4975511;28;1307;-68
2022/03/03 09:21:55;;;;;;;;;;;20.90;53.50;;;;;;4991746;28;1555;-67
2022/03/03 09:24:20;;;;;;;;;;;20.90;53.50;;;;;;4976534;28;1507;-68
2022/03/03 09:26:46;;;;;;;;;;;20.90;53.50;;;;;;4976609;28;1215;-67
2022/03/03 09:29:11;;;;;;;;;;;20.90;53.60;;;;;;4976388;28;998;-68
2022/03/03 09:31:37;;;;;;;;;;;20.80;53.60;;;;;;4976584;28;1077;-68
2022/03/03 09:34:02;;;;;;;;;;;20.80;53.60;;;;;;4976429;28;1451;-68
2022/03/03 09:36:28;;;;;;;;;;;20.80;53.70;;;;;;4976603;28;1962;-68
2022/03/03 09:38:53;;;;;;;;;;;20.80;53.80;;;;;;5017080;23;2226;-72
2022/03/03 09:41:18;;;;;;;;;;;20.70;53.80;;;;;;5015286;28;783;-73
2022/03/03 09:43:44;;;;;;;;;;;20.70;53.90;;;;;;5015202;28;918;-73
2022/03/03 09:46:09;;;;;;;;;;;20.70;54.00;;;;;;5015269;28;827;-72
2022/03/03 09:48:35;;;;;;;;;;;20.60;54.00;;;;;;5001454;28;1194;-73
2022/03/03 09:51:00;;;;;;;;;;;20.60;54.10;;;;;;4995434;28;826;-74
2022/03/03 09:53:26;;;;;;;;;;;20.60;54.20;;;;;;4996784;28;866;-72
2022/03/03 09:55:51;;;;;;;;;;;20.60;54.20;;;;;;5011666;28;720;-74
2022/03/03 09:58:17;;;;;;;;;;;20.50;54.30;;;;;;4995320;28;1976;-74
2022/03/03 10:00:42;;;;;;;;;;;20.50;54.40;;;;;;5009810;28;1366;-72
2022/03/03 10:03:10;;;;;;;;;;;20.50;54.40;;;;;;5010462;28;806;-73
2022/03/03 10:05:36;;;;;;;;;;;20.50;54.40;;;;;;4995284;28;891;-74
2022/03/03 10:08:06;;;;;;;;;;;20.50;54.40;;;;;;5001558;28;1398;-73
2022/03/03 10:10:31;;;;;;;;;;;20.40;54.50;;;;;;4985050;28;1402;-73
2022/03/03 10:12:57;;;;;;;;;;;20.40;54.60;;;;;;4992149;28;2142;-73
2022/03/03 10:15:26;;;;;;;;;;;20.40;54.60;;;;;;4991302;28;1850;-72
2022/03/03 10:17:56;;;;;;;;;;;20.40;54.70;;;;;;5009373;28;1991;-74
2022/03/03 10:20:21;;;;;;;;;;;20.40;54.70;;;;;;4994536;28;1615;-73
2022/03/03 10:22:47;;;;;;;;;;;20.40;54.70;;;;;;4991933;28;1236;-73
2022/03/03 10:25:14;;;;;;;;;;;20.40;54.70;;;;;;4993999;28;1086;-74
2022/03/03 10:27:39;;;;;;;;;;;20.40;54.80;;;;;;4993678;28;1287;-73
2022/03/03 10:30:06;;;;;;;;;;;20.30;54.70;;;;;;4994478;28;1105;-72
2022/03/03 10:32:35;;;;;;;;;;;20.30;54.80;;;;;;4986169;28;1259;-73
2022/03/03 10:35:02;;;;;;;;;;;20.30;54.80;;;;;;4986936;28;1267;-74
2022/03/03 10:37:27;;;;;;;;;;;20.30;54.90;;;;;;4992546;28;1899;-70
2022/03/03 10:39:56;;;;;;;;;;;20.30;54.90;;;;;;4986554;28;1220;-71
2022/03/03 10:42:23;;;;;;;;;;;20.30;54.90;;;;;;4989414;28;1363;-72
2022/03/03 10:45:11;;;;;;;;;;;20.20;55.00;;;;;;4994017;28;1106;-71
2022/03/03 10:47:36;;;;;;;;;;;20.20;55.00;;;;;;4994280;28;1189;-72
2022/03/03 10:50:02;;;;;;;;;;;20.20;55.00;;;;;;5008530;28;1303;-71
2022/03/03 10:52:32;;;;;;;;;;;20.20;55.10;;;;;;4993037;28;816;-72
2022/03/03 10:55:02;;;;;;;;;;;20.20;55.10;;;;;;4993018;28;1395;-72
2022/03/03 10:57:31;;;;;;;;;;;20.20;55.20;;;;;;4994060;28;1934;-71
2022/03/03 10:59:57;;;;;;;;;;;20.20;55.20;;;;;;4992590;28;896;-72
2022/03/03 11:02:22;;;;;;;;;;;20.10;55.20;;;;;;4993400;28;1014;-70
2022/03/03 11:04:48;;;;;;;;;;;20.10;55.20;;;;;;4992845;28;877;-71
2022/03/03 11:07:15;;;;;;;;;;;20.10;55.20;;;;;;4993154;28;1290;-72
2022/03/03 11:09:41;;;;;;;;;;;20.10;55.20;;;;;;4992635;28;828;-71
2022/03/03 11:12:06;;;;;;;;;;;20.10;55.30;;;;;;4992808;28;800;-72
2022/03/03 11:14:32;;;;;;;;;;;20.10;55.30;;;;;;4989538;28;1219;-72
2022/03/03 11:16:58;;;;;;;;;;;20.10;55.20;;;;;;4992448;28;1898;-70
2022/03/03 11:19:23;;;;;;;;;;;20.10;55.20;;;;;;4993410;28;1185;-69
2022/03/03 11:21:49;;;;;;;;;;;20.20;55.30;;;;;;5009038;28;827;-70
2022/03/03 11:24:16;;;;;;;;;;;20.20;55.20;;;;;;4993402;28;1808;-73
2022/03/03 11:26:42;;;;;;;;;;;20.20;55.20;;;;;;5008456;28;1502;-73
2022/03/03 11:29:10;;;;;;;;;;;20.20;55.20;;;;;;5007818;28;2024;-73
2022/03/03 11:31:37;;;;;;;;;;;20.20;55.10;;;;;;4984526;28;1033;-73
2022/03/03 11:34:21;;;;;;;;;;;20.20;55.10;;;;;;5008657;28;1198;-74
2022/03/03 11:36:46;;;;;;;;;;;20.20;55.00;;;;;;5009013;28;1964;-73
2022/03/03 11:39:31;;;;;;;;;;;20.20;55.00;;;;;;5007733;28;1274;-74
2022/03/03 11:41:56;;;;;;;;;;;20.20;55.00;;;;;;4993441;28;1017;-74
2022/03/03 11:44:31;;;;;;;;;;;20.20;55.00;;;;;;4993555;28;954;-74
2022/03/03 11:46:57;;;;;;;;;;;20.20;55.00;;;;;;4993911;28;819;-74
2022/03/03 11:49:24;;;;;;;;;;;20.20;55.00;;;;;;4993512;28;1577;-73
2022/03/03 11:51:49;;;;;;;;;;;20.20;55.00;;;;;;5008817;28;852;-74
2022/03/03 11:54:15;;;;;;;;;;;20.20;55.00;;;;;;4990871;28;1216;-74
2022/03/03 11:56:59;;;;;;;;;;;20.20;55.00;;;;;;4973685;28;1969;-73
2022/03/03 11:59:32;;;;;;;;;;;20.20;55.10;;;;;;4973559;28;1163;-73
2022/03/03 12:01:57;;;;;;;;;;;20.20;55.10;;;;;;4972976;28;1049;-74
2022/03/03 12:04:25;;;;;;;;;;;20.20;55.10;;;;;;4973918;28;862;-74
2022/03/03 12:06:50;;;;;;;;;;;20.20;55.10;;;;;;4973799;28;910;-73
2022/03/03 12:09:20;;;;;;;;;;;20.20;55.20;;;;;;4973378;28;1281;-74
2022/03/03 12:11:45;;;;;;;;;;;20.20;55.20;;;;;;4972616;28;1249;-73
2022/03/03 12:14:29;;;;;;;;;;;20.10;55.20;;;;;;4990727;28;710;-74
2022/03/03 12:17:12;;;;;;;;;;;20.10;55.20;;;;;;4977653;28;1898;-73
2022/03/03 12:19:38;;;;;;;;;;;20.10;55.20;;;;;;4983903;28;1199;-73
2022/03/03 12:22:03;;;;;;;;;;;20.10;55.20;;;;;;4989353;28;1069;-73
2022/03/03 12:24:33;;;;;;;;;;;20.10;55.20;;;;;;4992652;28;808;-74
2022/03/03 12:26:59;;;;;;;;;;;20.10;55.20;;;;;;4992364;28;1487;-74
2022/03/03 12:29:35;;;;;;;;;;;20.10;55.30;;;;;;4977597;28;1272;-73
2022/03/03 12:32:19;;;;;;;;;;;20.10;55.30;;;;;;4984902;28;1701;-74
2022/03/03 12:34:45;;;;;;;;;;;20.10;55.30;;;;;;4991732;28;1236;-72
2022/03/03 12:37:10;;;;;;;;;;;20.10;55.30;;;;;;4985672;28;1891;-72
2022/03/03 12:39:36;;;;;;;;;;;20.10;55.30;;;;;;4987263;28;1355;-71
2022/03/03 12:42:01;;;;;;;;;;;20.10;55.20;;;;;;4984938;28;1173;-71
2022/03/03 12:44:28;;;;;;;;;;;20.20;55.20;;;;;;4982498;28;1579;-72
2022/03/03 12:46:54;;;;;;;;;;;20.20;55.20;;;;;;4994475;28;2246;-71
2022/03/03 12:49:22;;;;;;;;;;;20.20;55.10;;;;;;4995979;28;1462;-72
2022/03/03 12:51:50;;;;;;;;;;;20.30;55.00;;;;;;4988838;28;1637;-71
2022/03/03 12:54:16;;;;;;;;;;;20.30;54.90;;;;;;4983137;28;1192;-72
2022/03/03 12:56:41;;;;;;;;;;;20.30;54.80;;;;;;4984003;28;1965;-71
2022/03/03 12:59:07;;;;;;;;;;;20.30;54.80;;;;;;4985713;28;1277;-71
2022/03/03 13:01:33;;;;;;;;;;;20.40;54.80;;;;;;4983117;28;1263;-69
2022/03/03 13:04:03;;;;;;;;;;;20.40;54.70;;;;;;4984304;28;1228;-70
2022/03/03 13:06:28;;;;;;;;;;;20.40;54.70;;;;;;4985266;28;1283;-70
2022/03/03 13:08:57;;;;;;;;;;;20.40;54.60;;;;;;4982072;28;1368;-71
2022/03/03 13:11:23;;;;;;;;;;;20.50;54.60;;;;;;4975648;28;891;-73
2022/03/03 13:13:48;;;;;;;;;;;20.40;54.60;;;;;;4976646;28;975;-73
2022/03/03 13:16:14;;;;;;;;;;;20.40;54.60;;;;;;4976908;28;772;-72
2022/03/03 13:18:40;;;;;;;;;;;20.50;54.60;;;;;;4975190;28;1387;-71
2022/03/03 13:21:06;;;;;;;;;;;20.40;54.60;;;;;;4996030;28;1581;-73
2022/03/03 13:23:32;;;;;;;;;;;20.40;54.60;;;;;;5011283;28;1333;-72
2022/03/03 13:26:01;;;;;;;;;;;20.40;54.60;;;;;;5010714;28;859;-71
2022/03/03 13:28:26;;;;;;;;;;;20.40;54.60;;;;;;5011056;28;1363;-72
2022/03/03 13:30:52;;;;;;;;;;;20.40;54.60;;;;;;5011114;28;863;-72
2022/03/03 13:33:17;;;;;;;;;;;20.40;54.60;;;;;;5011139;28;943;-73
2022/03/03 13:35:43;;;;;;;;;;;20.40;54.70;;;;;;4995685;28;1401;-72
2022/03/03 13:38:09;;;;;;;;;;;20.40;54.70;;;;;;4995692;28;1969;-72
2022/03/03 13:40:35;;;;;;;;;;;20.40;54.70;;;;;;5010741;28;1211;-73
2022/03/03 13:43:00;;;;;;;;;;;20.40;54.70;;;;;;4994679;28;2389;-72
2022/03/03 13:45:29;;;;;;;;;;;20.40;54.70;;;;;;4995646;28;1577;-71
2022/03/03 13:48:02;;;;;;;;;;;20.30;54.70;;;;;;5010699;28;1318;-72
2022/03/03 13:50:28;;;;;;;;;;;20.30;54.80;;;;;;4995608;28;1541;-72
2022/03/03 13:52:54;;;;;;;;;;;20.30;54.80;;;;;;4995670;28;1423;-72
2022/03/03 13:55:19;;;;;;;;;;;20.30;54.80;;;;;;4994281;28;1550;-70
2022/03/03 13:57:51;;;;;;;;;;;20.30;54.80;;;;;;4995034;28;1914;-72
2022/03/03 14:00:18;;;;;;;;;;;20.30;54.90;;;;;;4995182;28;1594;-71
2022/03/03 14:02:53;;;;;;;;;;;20.30;54.90;;;;;;5010703;28;832;-72
2022/03/03 14:05:29;;;;;;;;;;;20.30;54.90;;;;;;4995285;28;925;-71
2022/03/03 14:07:55;;;;;;;;;;;20.20;54.90;;;;;;4995218;28;1197;-72
2022/03/03 14:10:20;;;;;;;;;;;20.20;54.90;;;;;;4994905;28;1056;-71
2022/03/03 14:13:02;;;;;;;;;;;20.20;55.00;;;;;;4995297;28;851;-71
2022/03/03 14:15:27;;;;;;;;;;;20.20;55.00;;;;;;4995248;28;844;-71
2022/03/03 14:17:53;;;;;;;;;;;20.20;55.00;;;;;;4977670;28;1971;-71
2022/03/03 14:20:19;;;;;;;;;;;20.20;55.10;;;;;;4987743;28;1426;-70
2022/03/03 14:22:53;;;;;;;;;;;20.20;55.10;;;;;;5010188;28;999;-70
2022/03/03 14:25:18;;;;;;;;;;;20.20;55.10;;;;;;5010146;28;816;-71
2022/03/03 14:27:44;;;;;;;;;;;20.20;55.20;;;;;;4995009;28;1177;-71
2022/03/03 14:30:09;;;;;;;;;;;20.20;55.20;;;;;;4994611;28;855;-70